sensor_id;sensor_type;location;lat;lon;timestamp;P1;durP1;ratioP1;P2;durP2;ratioP2
19739;SDS011;10027;51.066;13.768;2022-09-30T00:02:17;7.27;;;4.77;;
19739;SDS011;10027;51.066;13.768;2022-09-30T00:04:45;8.17;;;4.83;;
19739;SDS011;10027;51.066;13.768;2022-09-30T00:07:12;7.13;;;4.73;;
19739;SDS011;10027;51.066;13.768;2022-09-30T00:09:39;5.17;;;4.13;;
19739;SDS011;10027;51.066;13.768;2022-09-30T00:12:06;6.23;;;4.90;;
19739;SDS011;10027;51.066;13.768;2022-09-30T00:14:33;7.83;;;4.80;;
19739;SDS011;10027;51.066;13.768;2022-09-30T00:17:00;6.53;;;5.03;;
19739;SDS011;10027;51.066;13.768;2022-09-30T00:19:27;7.53;;;5.13;;
19739;SDS011;10027;51.066;13.768;2022-09-30T00:21:54;8.63;;;4.97;;
19739;SDS011;10027;51.066;13.768;2022-09-30T00:24:21;5.77;;;4.80;;
19739;SDS011;10027;51.066;13.768;2022-09-30T00:26:48;8.00;;;4.83;;
19739;SDS011;10027;51.066;13.768;2022-09-30T00:29:16;7.07;;;4.60;;
19739;SDS011;10027;51.066;13.768;2022-09-30T00:31:43;6.23;;;4.47;;
19739;SDS011;10027;51.066;13.768;2022-09-30T00:34:10;6.50;;;4.90;;
19739;SDS011;10027;51.066;13.768;2022-09-30T00:36:38;6.83;;;4.77;;
19739;SDS011;10027;51.066;13.768;2022-09-30T00:39:09;9.13;;;5.07;;
19739;SDS011;10027;51.066;13.768;2022-09-30T00:41:36;6.73;;;4.63;;
19739;SDS011;10027;51.066;13.768;2022-09-30T00:46:49;6.90;;;4.83;;
19739;SDS011;10027;51.066;13.768;2022-09-30T00:49:18;9.40;;;4.93;;
19739;SDS011;10027;51.066;13.768;2022-09-30T00:51:48;7.23;;;4.80;;
19739;SDS011;10027;51.066;13.768;2022-09-30T00:54:17;6.93;;;4.93;;
19739;SDS011;10027;51.066;13.768;2022-09-30T00:56:46;6.20;;;4.63;;
19739;SDS011;10027;51.066;13.768;2022-09-30T00:59:17;6.87;;;4.47;;
19739;SDS011;10027;51.066;13.768;2022-09-30T01:01:44;6.33;;;4.77;;
19739;SDS011;10027;51.066;13.768;2022-09-30T01:04:13;6.97;;;4.93;;
19739;SDS011;10027;51.066;13.768;2022-09-30T01:06:40;7.53;;;5.13;;
19739;SDS011;10027;51.066;13.768;2022-09-30T01:09:08;8.60;;;5.03;;
19739;SDS011;10027;51.066;13.768;2022-09-30T01:11:35;6.37;;;5.17;;
19739;SDS011;10027;51.066;13.768;2022-09-30T01:14:07;7.60;;;4.60;;
19739;SDS011;10027;51.066;13.768;2022-09-30T01:24:38;9.23;;;5.00;;
19739;SDS011;10027;51.066;13.768;2022-09-30T01:27:14;9.63;;;5.10;;
19739;SDS011;10027;51.066;13.768;2022-09-30T01:32:16;8.17;;;5.10;;
19739;SDS011;10027;51.066;13.768;2022-09-30T01:34:50;6.80;;;5.07;;
19739;SDS011;10027;51.066;13.768;2022-09-30T01:37:23;9.90;;;5.07;;
19739;SDS011;10027;51.066;13.768;2022-09-30T01:42:34;6.00;;;4.73;;
19739;SDS011;10027;51.066;13.768;2022-09-30T01:45:12;8.90;;;4.90;;
19739;SDS011;10027;51.066;13.768;2022-09-30T01:47:44;5.87;;;4.57;;
19739;SDS011;10027;51.066;13.768;2022-09-30T01:55:45;7.87;;;4.70;;
19739;SDS011;10027;51.066;13.768;2022-09-30T01:58:23;6.10;;;4.80;;
19739;SDS011;10027;51.066;13.768;2022-09-30T02:00:52;9.00;;;4.87;;
19739;SDS011;10027;51.066;13.768;2022-09-30T02:03:28;7.87;;;5.10;;
19739;SDS011;10027;51.066;13.768;2022-09-30T02:06:04;10.83;;;5.73;;
19739;SDS011;10027;51.066;13.768;2022-09-30T02:11:16;7.03;;;4.67;;
19739;SDS011;10027;51.066;13.768;2022-09-30T02:13:48;10.37;;;5.40;;
19739;SDS011;10027;51.066;13.768;2022-09-30T02:16:20;7.53;;;4.93;;
19739;SDS011;10027;51.066;13.768;2022-09-30T02:18:53;6.43;;;5.00;;
19739;SDS011;10027;51.066;13.768;2022-09-30T02:21:26;6.47;;;5.07;;
19739;SDS011;10027;51.066;13.768;2022-09-30T02:23:57;7.00;;;5.17;;
19739;SDS011;10027;51.066;13.768;2022-09-30T02:26:29;8.07;;;5.60;;
19739;SDS011;10027;51.066;13.768;2022-09-30T02:28:58;7.53;;;5.60;;
19739;SDS011;10027;51.066;13.768;2022-09-30T02:31:30;6.97;;;4.83;;
19739;SDS011;10027;51.066;13.768;2022-09-30T02:33:59;8.90;;;5.37;;
19739;SDS011;10027;51.066;13.768;2022-09-30T02:36:30;8.60;;;5.50;;
19739;SDS011;10027;51.066;13.768;2022-09-30T02:39:00;7.30;;;5.33;;
19739;SDS011;10027;51.066;13.768;2022-09-30T02:41:28;8.70;;;5.30;;
19739;SDS011;10027;51.066;13.768;2022-09-30T02:43:57;7.30;;;5.27;;
19739;SDS011;10027;51.066;13.768;2022-09-30T02:54:19;8.00;;;5.40;;
19739;SDS011;10027;51.066;13.768;2022-09-30T02:59:19;7.13;;;5.10;;
19739;SDS011;10027;51.066;13.768;2022-09-30T03:01:47;7.53;;;5.27;;
19739;SDS011;10027;51.066;13.768;2022-09-30T03:04:17;7.83;;;5.23;;
19739;SDS011;10027;51.066;13.768;2022-09-30T03:06:45;7.20;;;5.47;;
19739;SDS011;10027;51.066;13.768;2022-09-30T03:09:12;6.90;;;5.33;;
19739;SDS011;10027;51.066;13.768;2022-09-30T03:11:39;8.77;;;5.80;;
19739;SDS011;10027;51.066;13.768;2022-09-30T03:14:10;7.10;;;5.53;;
19739;SDS011;10027;51.066;13.768;2022-09-30T03:30:08;7.13;;;4.97;;
19739;SDS011;10027;51.066;13.768;2022-09-30T03:40:28;6.60;;;4.63;;
19739;SDS011;10027;51.066;13.768;2022-09-30T03:42:58;7.50;;;5.13;;
19739;SDS011;10027;51.066;13.768;2022-09-30T03:45:29;7.60;;;5.20;;
19739;SDS011;10027;51.066;13.768;2022-09-30T03:48:02;7.03;;;5.00;;
19739;SDS011;10027;51.066;13.768;2022-09-30T03:50:30;5.60;;;4.63;;
19739;SDS011;10027;51.066;13.768;2022-09-30T03:52:57;9.10;;;5.17;;
19739;SDS011;10027;51.066;13.768;2022-09-30T03:55:25;8.40;;;5.27;;
19739;SDS011;10027;51.066;13.768;2022-09-30T03:57:53;8.70;;;5.00;;
19739;SDS011;10027;51.066;13.768;2022-09-30T04:00:22;7.93;;;5.07;;
19739;SDS011;10027;51.066;13.768;2022-09-30T04:02:49;10.43;;;5.87;;
19739;SDS011;10027;51.066;13.768;2022-09-30T04:05:22;7.40;;;5.20;;
19739;SDS011;10027;51.066;13.768;2022-09-30T04:07:49;6.40;;;5.30;;
19739;SDS011;10027;51.066;13.768;2022-09-30T04:10:16;6.80;;;5.17;;
19739;SDS011;10027;51.066;13.768;2022-09-30T04:12:43;13.13;;;5.03;;
19739;SDS011;10027;51.066;13.768;2022-09-30T04:15:10;10.03;;;5.33;;
19739;SDS011;10027;51.066;13.768;2022-09-30T04:17:38;8.87;;;5.27;;
19739;SDS011;10027;51.066;13.768;2022-09-30T04:20:05;5.90;;;5.00;;
19739;SDS011;10027;51.066;13.768;2022-09-30T04:22:32;8.50;;;5.00;;
19739;SDS011;10027;51.066;13.768;2022-09-30T04:24:59;7.47;;;5.03;;
19739;SDS011;10027;51.066;13.768;2022-09-30T04:27:26;7.43;;;4.93;;
19739;SDS011;10027;51.066;13.768;2022-09-30T04:29:55;7.60;;;4.93;;
19739;SDS011;10027;51.066;13.768;2022-09-30T04:32:22;9.13;;;5.17;;
19739;SDS011;10027;51.066;13.768;2022-09-30T04:34:50;9.50;;;5.17;;
19739;SDS011;10027;51.066;13.768;2022-09-30T04:37:19;7.23;;;5.13;;
19739;SDS011;10027;51.066;13.768;2022-09-30T04:39:46;8.03;;;4.77;;
19739;SDS011;10027;51.066;13.768;2022-09-30T04:42:13;7.70;;;5.33;;
19739;SDS011;10027;51.066;13.768;2022-09-30T04:44:42;8.47;;;5.27;;
19739;SDS011;10027;51.066;13.768;2022-09-30T04:47:10;8.77;;;5.47;;
19739;SDS011;10027;51.066;13.768;2022-09-30T04:49:37;8.50;;;5.43;;
19739;SDS011;10027;51.066;13.768;2022-09-30T04:52:04;6.53;;;5.13;;
19739;SDS011;10027;51.066;13.768;2022-09-30T04:54:31;7.33;;;5.40;;
19739;SDS011;10027;51.066;13.768;2022-09-30T04:56:58;10.63;;;5.60;;
19739;SDS011;10027;51.066;13.768;2022-09-30T04:59:25;7.53;;;5.77;;
19739;SDS011;10027;51.066;13.768;2022-09-30T05:01:53;7.40;;;5.07;;
19739;SDS011;10027;51.066;13.768;2022-09-30T05:04:20;8.93;;;4.80;;
19739;SDS011;10027;51.066;13.768;2022-09-30T05:06:47;8.70;;;4.77;;
19739;SDS011;10027;51.066;13.768;2022-09-30T05:09:15;7.53;;;5.07;;
19739;SDS011;10027;51.066;13.768;2022-09-30T05:11:42;8.13;;;5.17;;
19739;SDS011;10027;51.066;13.768;2022-09-30T05:14:09;8.50;;;5.30;;
19739;SDS011;10027;51.066;13.768;2022-09-30T05:16:36;7.50;;;5.17;;
19739;SDS011;10027;51.066;13.768;2022-09-30T05:19:03;6.93;;;5.03;;
19739;SDS011;10027;51.066;13.768;2022-09-30T05:21:30;7.00;;;5.17;;
19739;SDS011;10027;51.066;13.768;2022-09-30T05:23:57;8.40;;;5.07;;
19739;SDS011;10027;51.066;13.768;2022-09-30T05:26:24;7.07;;;4.80;;
19739;SDS011;10027;51.066;13.768;2022-09-30T05:28:51;8.13;;;4.80;;
19739;SDS011;10027;51.066;13.768;2022-09-30T05:31:18;7.93;;;4.97;;
19739;SDS011;10027;51.066;13.768;2022-09-30T05:33:46;9.07;;;4.93;;
19739;SDS011;10027;51.066;13.768;2022-09-30T05:36:13;7.43;;;4.60;;
19739;SDS011;10027;51.066;13.768;2022-09-30T05:38:41;7.53;;;4.47;;
19739;SDS011;10027;51.066;13.768;2022-09-30T05:41:09;6.63;;;4.67;;
19739;SDS011;10027;51.066;13.768;2022-09-30T05:43:37;7.90;;;5.10;;
19739;SDS011;10027;51.066;13.768;2022-09-30T05:46:04;8.97;;;5.83;;
19739;SDS011;10027;51.066;13.768;2022-09-30T05:48:32;7.97;;;5.40;;
19739;SDS011;10027;51.066;13.768;2022-09-30T05:50:59;8.43;;;5.07;;
19739;SDS011;10027;51.066;13.768;2022-09-30T05:53:27;9.50;;;5.50;;
19739;SDS011;10027;51.066;13.768;2022-09-30T05:55:55;9.93;;;5.43;;
19739;SDS011;10027;51.066;13.768;2022-09-30T05:58:22;14.63;;;5.53;;
19739;SDS011;10027;51.066;13.768;2022-09-30T06:00:49;7.70;;;5.83;;
19739;SDS011;10027;51.066;13.768;2022-09-30T06:03:17;8.40;;;5.50;;
19739;SDS011;10027;51.066;13.768;2022-09-30T06:05:44;8.23;;;5.70;;
19739;SDS011;10027;51.066;13.768;2022-09-30T06:08:11;9.10;;;4.97;;
19739;SDS011;10027;51.066;13.768;2022-09-30T06:10:39;8.37;;;5.50;;
19739;SDS011;10027;51.066;13.768;2022-09-30T06:13:07;7.67;;;4.87;;
19739;SDS011;10027;51.066;13.768;2022-09-30T06:15:34;6.63;;;4.60;;
19739;SDS011;10027;51.066;13.768;2022-09-30T06:18:04;8.23;;;5.10;;
19739;SDS011;10027;51.066;13.768;2022-09-30T06:20:31;10.60;;;5.37;;
19739;SDS011;10027;51.066;13.768;2022-09-30T06:23:01;6.23;;;4.93;;
19739;SDS011;10027;51.066;13.768;2022-09-30T06:25:28;8.73;;;5.23;;
19739;SDS011;10027;51.066;13.768;2022-09-30T06:27:56;8.80;;;5.57;;
19739;SDS011;10027;51.066;13.768;2022-09-30T06:30:23;8.63;;;5.90;;
19739;SDS011;10027;51.066;13.768;2022-09-30T06:32:50;8.93;;;5.43;;
19739;SDS011;10027;51.066;13.768;2022-09-30T06:35:19;12.67;;;5.97;;
19739;SDS011;10027;51.066;13.768;2022-09-30T06:37:51;9.93;;;5.83;;
19739;SDS011;10027;51.066;13.768;2022-09-30T06:40:19;8.63;;;5.87;;
19739;SDS011;10027;51.066;13.768;2022-09-30T06:42:47;8.57;;;6.10;;
19739;SDS011;10027;51.066;13.768;2022-09-30T06:45:15;9.57;;;5.77;;
19739;SDS011;10027;51.066;13.768;2022-09-30T06:48:00;9.67;;;5.87;;
19739;SDS011;10027;51.066;13.768;2022-09-30T06:50:28;10.33;;;6.03;;
19739;SDS011;10027;51.066;13.768;2022-09-30T06:52:56;10.87;;;6.13;;
19739;SDS011;10027;51.066;13.768;2022-09-30T06:55:24;8.40;;;6.00;;
19739;SDS011;10027;51.066;13.768;2022-09-30T06:57:52;10.97;;;6.77;;
19739;SDS011;10027;51.066;13.768;2022-09-30T07:00:20;12.77;;;6.87;;
19739;SDS011;10027;51.066;13.768;2022-09-30T07:02:47;10.67;;;6.33;;
19739;SDS011;10027;51.066;13.768;2022-09-30T07:05:15;9.97;;;7.17;;
19739;SDS011;10027;51.066;13.768;2022-09-30T07:07:42;10.70;;;6.60;;
19739;SDS011;10027;51.066;13.768;2022-09-30T07:10:09;8.30;;;6.20;;
19739;SDS011;10027;51.066;13.768;2022-09-30T07:12:37;10.57;;;6.20;;
19739;SDS011;10027;51.066;13.768;2022-09-30T07:15:04;10.47;;;6.00;;
19739;SDS011;10027;51.066;13.768;2022-09-30T07:17:37;9.03;;;6.10;;
19739;SDS011;10027;51.066;13.768;2022-09-30T07:20:05;7.23;;;5.53;;
19739;SDS011;10027;51.066;13.768;2022-09-30T07:22:33;8.13;;;5.37;;
19739;SDS011;10027;51.066;13.768;2022-09-30T07:25:01;8.67;;;5.63;;
19739;SDS011;10027;51.066;13.768;2022-09-30T07:27:30;11.63;;;5.60;;
19739;SDS011;10027;51.066;13.768;2022-09-30T07:29:57;9.40;;;5.70;;
19739;SDS011;10027;51.066;13.768;2022-09-30T07:32:37;8.80;;;5.70;;
19739;SDS011;10027;51.066;13.768;2022-09-30T07:35:04;8.90;;;5.80;;
19739;SDS011;10027;51.066;13.768;2022-09-30T07:37:32;7.23;;;5.77;;
19739;SDS011;10027;51.066;13.768;2022-09-30T07:40:02;8.53;;;5.70;;
19739;SDS011;10027;51.066;13.768;2022-09-30T07:42:31;8.53;;;5.80;;
19739;SDS011;10027;51.066;13.768;2022-09-30T07:44:58;9.20;;;6.07;;
19739;SDS011;10027;51.066;13.768;2022-09-30T07:47:26;9.87;;;6.07;;
19739;SDS011;10027;51.066;13.768;2022-09-30T07:49:53;10.27;;;5.90;;
19739;SDS011;10027;51.066;13.768;2022-09-30T07:52:20;9.57;;;6.37;;
19739;SDS011;10027;51.066;13.768;2022-09-30T07:54:47;8.77;;;5.97;;
19739;SDS011;10027;51.066;13.768;2022-09-30T07:57:16;7.80;;;6.07;;
19739;SDS011;10027;51.066;13.768;2022-09-30T07:59:43;8.47;;;6.10;;
19739;SDS011;10027;51.066;13.768;2022-09-30T08:02:12;9.53;;;5.43;;
19739;SDS011;10027;51.066;13.768;2022-09-30T08:04:40;7.60;;;5.60;;
19739;SDS011;10027;51.066;13.768;2022-09-30T08:07:10;8.73;;;5.97;;
19739;SDS011;10027;51.066;13.768;2022-09-30T08:09:37;6.80;;;5.60;;
19739;SDS011;10027;51.066;13.768;2022-09-30T08:12:05;7.87;;;5.63;;
19739;SDS011;10027;51.066;13.768;2022-09-30T08:14:32;7.20;;;5.83;;
19739;SDS011;10027;51.066;13.768;2022-09-30T08:16:59;10.27;;;6.13;;
19739;SDS011;10027;51.066;13.768;2022-09-30T08:19:27;8.07;;;5.83;;
19739;SDS011;10027;51.066;13.768;2022-09-30T08:21:54;8.30;;;5.83;;
19739;SDS011;10027;51.066;13.768;2022-09-30T08:24:22;9.83;;;5.73;;
19739;SDS011;10027;51.066;13.768;2022-09-30T08:26:50;7.07;;;5.37;;
19739;SDS011;10027;51.066;13.768;2022-09-30T08:29:18;15.43;;;9.13;;
19739;SDS011;10027;51.066;13.768;2022-09-30T08:32:05;12.30;;;7.50;;
19739;SDS011;10027;51.066;13.768;2022-09-30T08:34:32;8.10;;;6.13;;
19739;SDS011;10027;51.066;13.768;2022-09-30T08:37:00;10.13;;;5.73;;
19739;SDS011;10027;51.066;13.768;2022-09-30T08:39:34;9.33;;;5.83;;
19739;SDS011;10027;51.066;13.768;2022-09-30T08:47:48;8.03;;;5.27;;
19739;SDS011;10027;51.066;13.768;2022-09-30T08:52:57;7.93;;;5.43;;
19739;SDS011;10027;51.066;13.768;2022-09-30T08:55:27;8.87;;;5.90;;
19739;SDS011;10027;51.066;13.768;2022-09-30T08:57:55;7.43;;;5.77;;
19739;SDS011;10027;51.066;13.768;2022-09-30T09:00:23;7.53;;;5.50;;
19739;SDS011;10027;51.066;13.768;2022-09-30T09:02:52;8.60;;;5.60;;
19739;SDS011;10027;51.066;13.768;2022-09-30T09:08:02;7.07;;;5.27;;
19739;SDS011;10027;51.066;13.768;2022-09-30T09:10:45;8.47;;;5.00;;
19739;SDS011;10027;51.066;13.768;2022-09-30T09:23:30;6.33;;;4.77;;
19739;SDS011;10027;51.066;13.768;2022-09-30T09:25:58;5.50;;;4.50;;
19739;SDS011;10027;51.066;13.768;2022-09-30T09:30:54;8.17;;;4.50;;
19739;SDS011;10027;51.066;13.768;2022-09-30T09:33:25;5.43;;;4.43;;
19739;SDS011;10027;51.066;13.768;2022-09-30T09:44:01;6.17;;;4.07;;
19739;SDS011;10027;51.066;13.768;2022-09-30T09:49:31;5.77;;;4.10;;
19739;SDS011;10027;51.066;13.768;2022-09-30T09:57:10;5.60;;;3.60;;
19739;SDS011;10027;51.066;13.768;2022-09-30T09:59:38;6.60;;;3.87;;
19739;SDS011;10027;51.066;13.768;2022-09-30T10:02:21;6.17;;;3.70;;
19739;SDS011;10027;51.066;13.768;2022-09-30T10:04:49;4.60;;;3.80;;
19739;SDS011;10027;51.066;13.768;2022-09-30T10:07:25;5.50;;;3.60;;
19739;SDS011;10027;51.066;13.768;2022-09-30T10:10:04;4.33;;;3.50;;
19739;SDS011;10027;51.066;13.768;2022-09-30T10:12:32;4.47;;;3.13;;
19739;SDS011;10027;51.066;13.768;2022-09-30T10:15:00;3.90;;;3.10;;
19739;SDS011;10027;51.066;13.768;2022-09-30T10:17:29;6.93;;;3.00;;
19739;SDS011;10027;51.066;13.768;2022-09-30T10:19:59;4.87;;;3.10;;
19739;SDS011;10027;51.066;13.768;2022-09-30T10:22:28;4.03;;;2.70;;
19739;SDS011;10027;51.066;13.768;2022-09-30T10:27:35;3.67;;;2.60;;
19739;SDS011;10027;51.066;13.768;2022-09-30T10:30:02;3.37;;;2.73;;
19739;SDS011;10027;51.066;13.768;2022-09-30T10:32:29;3.13;;;2.60;;
19739;SDS011;10027;51.066;13.768;2022-09-30T10:35:02;3.53;;;2.80;;
19739;SDS011;10027;51.066;13.768;2022-09-30T10:37:30;3.30;;;2.70;;
19739;SDS011;10027;51.066;13.768;2022-09-30T10:40:07;4.23;;;2.53;;
19739;SDS011;10027;51.066;13.768;2022-09-30T10:42:37;3.43;;;2.30;;
19739;SDS011;10027;51.066;13.768;2022-09-30T10:47:32;2.53;;;2.20;;
19739;SDS011;10027;51.066;13.768;2022-09-30T10:50:06;2.30;;;2.10;;
19739;SDS011;10027;51.066;13.768;2022-09-30T10:52:38;2.23;;;1.80;;
19739;SDS011;10027;51.066;13.768;2022-09-30T10:57:46;4.70;;;2.40;;
19739;SDS011;10027;51.066;13.768;2022-09-30T11:00:17;2.10;;;1.90;;
19739;SDS011;10027;51.066;13.768;2022-09-30T11:02:59;2.73;;;1.90;;
19739;SDS011;10027;51.066;13.768;2022-09-30T11:05:30;2.83;;;2.50;;
19739;SDS011;10027;51.066;13.768;2022-09-30T11:07:58;3.03;;;2.40;;
19739;SDS011;10027;51.066;13.768;2022-09-30T11:18:43;2.67;;;2.30;;
19739;SDS011;10027;51.066;13.768;2022-09-30T11:21:16;3.23;;;2.50;;
19739;SDS011;10027;51.066;13.768;2022-09-30T11:23:45;3.10;;;2.30;;
19739;SDS011;10027;51.066;13.768;2022-09-30T11:31:34;2.93;;;2.40;;
19739;SDS011;10027;51.066;13.768;2022-09-30T11:34:18;3.60;;;2.33;;
19739;SDS011;10027;51.066;13.768;2022-09-30T11:36:51;2.83;;;2.40;;
19739;SDS011;10027;51.066;13.768;2022-09-30T11:42:00;2.53;;;2.30;;
19739;SDS011;10027;51.066;13.768;2022-09-30T11:44:34;4.53;;;2.50;;
19739;SDS011;10027;51.066;13.768;2022-09-30T11:47:06;2.23;;;2.03;;
19739;SDS011;10027;51.066;13.768;2022-09-30T11:54:48;2.77;;;2.10;;
19739;SDS011;10027;51.066;13.768;2022-09-30T11:57:21;2.27;;;1.90;;
19739;SDS011;10027;51.066;13.768;2022-09-30T12:00:08;2.23;;;1.80;;
19739;SDS011;10027;51.066;13.768;2022-09-30T12:02:52;2.70;;;2.17;;
19739;SDS011;10027;51.066;13.768;2022-09-30T12:07:57;3.43;;;2.07;;
19739;SDS011;10027;51.066;13.768;2022-09-30T12:10:30;2.30;;;1.80;;
19739;SDS011;10027;51.066;13.768;2022-09-30T12:13:12;3.23;;;1.80;;
19739;SDS011;10027;51.066;13.768;2022-09-30T12:15:40;2.00;;;1.80;;
19739;SDS011;10027;51.066;13.768;2022-09-30T12:18:12;2.50;;;1.57;;
19739;SDS011;10027;51.066;13.768;2022-09-30T12:23:19;2.60;;;2.07;;
19739;SDS011;10027;51.066;13.768;2022-09-30T12:25:48;2.20;;;1.60;;
19739;SDS011;10027;51.066;13.768;2022-09-30T12:28:33;2.17;;;1.83;;
19739;SDS011;10027;51.066;13.768;2022-09-30T12:38:56;2.37;;;1.57;;
19739;SDS011;10027;51.066;13.768;2022-09-30T12:41:31;2.90;;;1.70;;
19739;SDS011;10027;51.066;13.768;2022-09-30T12:49:21;1.30;;;1.20;;
19739;SDS011;10027;51.066;13.768;2022-09-30T12:51:49;2.50;;;1.70;;
19739;SDS011;10027;51.066;13.768;2022-09-30T12:54:20;2.27;;;1.50;;
19739;SDS011;10027;51.066;13.768;2022-09-30T12:56:52;1.87;;;1.50;;
19739;SDS011;10027;51.066;13.768;2022-09-30T12:59:23;2.23;;;1.53;;
19739;SDS011;10027;51.066;13.768;2022-09-30T13:01:51;1.40;;;1.20;;
19739;SDS011;10027;51.066;13.768;2022-09-30T13:04:37;2.10;;;1.40;;
19739;SDS011;10027;51.066;13.768;2022-09-30T13:07:12;1.60;;;1.40;;
19739;SDS011;10027;51.066;13.768;2022-09-30T13:09:55;2.30;;;1.57;;
19739;SDS011;10027;51.066;13.768;2022-09-30T13:12:44;1.60;;;1.30;;
19739;SDS011;10027;51.066;13.768;2022-09-30T13:15:37;1.20;;;1.10;;
19739;SDS011;10027;51.066;13.768;2022-09-30T13:20:55;1.57;;;1.47;;
19739;SDS011;10027;51.066;13.768;2022-09-30T13:23:43;2.33;;;1.30;;
19739;SDS011;10027;51.066;13.768;2022-09-30T13:28:54;1.80;;;1.53;;
19739;SDS011;10027;51.066;13.768;2022-09-30T13:34:12;2.70;;;1.77;;
19739;SDS011;10027;51.066;13.768;2022-09-30T13:36:40;1.67;;;1.50;;
19739;SDS011;10027;51.066;13.768;2022-09-30T13:39:24;2.93;;;1.53;;
19739;SDS011;10027;51.066;13.768;2022-09-30T13:47:33;2.27;;;1.60;;
19739;SDS011;10027;51.066;13.768;2022-09-30T13:50:03;2.30;;;1.57;;
19739;SDS011;10027;51.066;13.768;2022-09-30T13:52:32;2.97;;;1.83;;
19739;SDS011;10027;51.066;13.768;2022-09-30T13:55:06;2.60;;;1.60;;
19739;SDS011;10027;51.066;13.768;2022-09-30T14:00:35;2.63;;;1.60;;
19739;SDS011;10027;51.066;13.768;2022-09-30T14:08:09;2.80;;;1.40;;
19739;SDS011;10027;51.066;13.768;2022-09-30T14:13:30;3.43;;;1.90;;
19739;SDS011;10027;51.066;13.768;2022-09-30T14:18:31;2.27;;;1.50;;
19739;SDS011;10027;51.066;13.768;2022-09-30T14:21:07;3.17;;;1.73;;
19739;SDS011;10027;51.066;13.768;2022-09-30T14:23:37;3.53;;;1.67;;
19739;SDS011;10027;51.066;13.768;2022-09-30T14:28:36;1.67;;;1.57;;
19739;SDS011;10027;51.066;13.768;2022-09-30T14:31:04;2.83;;;1.60;;
19739;SDS011;10027;51.066;13.768;2022-09-30T14:33:34;1.73;;;1.40;;
19739;SDS011;10027;51.066;13.768;2022-09-30T14:36:02;2.03;;;1.80;;
19739;SDS011;10027;51.066;13.768;2022-09-30T14:38:31;2.23;;;1.43;;
19739;SDS011;10027;51.066;13.768;2022-09-30T14:41:01;2.23;;;1.77;;
19739;SDS011;10027;51.066;13.768;2022-09-30T14:43:36;1.60;;;1.50;;
19739;SDS011;10027;51.066;13.768;2022-09-30T14:48:55;1.90;;;1.70;;
19739;SDS011;10027;51.066;13.768;2022-09-30T14:51:24;2.90;;;2.10;;
19739;SDS011;10027;51.066;13.768;2022-09-30T14:53:53;2.37;;;1.50;;
19739;SDS011;10027;51.066;13.768;2022-09-30T14:58:56;1.63;;;1.53;;
19739;SDS011;10027;51.066;13.768;2022-09-30T15:01:27;2.50;;;1.63;;
19739;SDS011;10027;51.066;13.768;2022-09-30T15:06:35;2.63;;;1.80;;
19739;SDS011;10027;51.066;13.768;2022-09-30T15:09:06;1.97;;;1.60;;
19739;SDS011;10027;51.066;13.768;2022-09-30T15:11:34;1.73;;;1.40;;
19739;SDS011;10027;51.066;13.768;2022-09-30T15:14:06;2.00;;;1.70;;
19739;SDS011;10027;51.066;13.768;2022-09-30T15:16:43;1.60;;;1.50;;
19739;SDS011;10027;51.066;13.768;2022-09-30T15:19:16;2.23;;;1.70;;
19739;SDS011;10027;51.066;13.768;2022-09-30T15:21:43;1.60;;;1.40;;
19739;SDS011;10027;51.066;13.768;2022-09-30T15:24:11;1.80;;;1.60;;
19739;SDS011;10027;51.066;13.768;2022-09-30T15:26:38;3.17;;;1.73;;
19739;SDS011;10027;51.066;13.768;2022-09-30T15:29:14;2.93;;;1.60;;
19739;SDS011;10027;51.066;13.768;2022-09-30T15:31:42;2.50;;;1.60;;
19739;SDS011;10027;51.066;13.768;2022-09-30T15:34:16;2.80;;;1.50;;
19739;SDS011;10027;51.066;13.768;2022-09-30T15:36:59;2.30;;;1.53;;
19739;SDS011;10027;51.066;13.768;2022-09-30T15:39:32;1.40;;;1.30;;
19739;SDS011;10027;51.066;13.768;2022-09-30T15:42:38;2.27;;;1.67;;
19739;SDS011;10027;51.066;13.768;2022-09-30T15:47:53;1.63;;;1.53;;
19739;SDS011;10027;51.066;13.768;2022-09-30T15:50:33;2.77;;;1.80;;
19739;SDS011;10027;51.066;13.768;2022-09-30T15:53:02;4.50;;;2.27;;
19739;SDS011;10027;51.066;13.768;2022-09-30T15:55:38;1.73;;;1.50;;
19739;SDS011;10027;51.066;13.768;2022-09-30T16:01:33;2.40;;;1.70;;
19739;SDS011;10027;51.066;13.768;2022-09-30T16:06:24;2.53;;;1.83;;
19739;SDS011;10027;51.066;13.768;2022-09-30T16:08:53;3.77;;;2.23;;
19739;SDS011;10027;51.066;13.768;2022-09-30T16:11:36;2.77;;;2.20;;
19739;SDS011;10027;51.066;13.768;2022-09-30T16:14:07;2.83;;;2.40;;
19739;SDS011;10027;51.066;13.768;2022-09-30T16:16:34;3.17;;;2.57;;
19739;SDS011;10027;51.066;13.768;2022-09-30T16:19:03;3.03;;;2.73;;
19739;SDS011;10027;51.066;13.768;2022-09-30T16:26:50;2.60;;;2.20;;
19739;SDS011;10027;51.066;13.768;2022-09-30T16:29:17;3.30;;;2.17;;
19739;SDS011;10027;51.066;13.768;2022-09-30T16:31:44;1.77;;;1.63;;
19739;SDS011;10027;51.066;13.768;2022-09-30T16:34:22;2.90;;;2.03;;
19739;SDS011;10027;51.066;13.768;2022-09-30T16:36:49;2.83;;;1.90;;
19739;SDS011;10027;51.066;13.768;2022-09-30T16:39:16;3.57;;;2.20;;
19739;SDS011;10027;51.066;13.768;2022-09-30T16:41:44;3.43;;;2.30;;
19739;SDS011;10027;51.066;13.768;2022-09-30T16:44:11;2.50;;;2.10;;
19739;SDS011;10027;51.066;13.768;2022-09-30T16:46:39;3.93;;;2.47;;
19739;SDS011;10027;51.066;13.768;2022-09-30T16:49:13;1.83;;;1.73;;
19739;SDS011;10027;51.066;13.768;2022-09-30T16:51:41;3.30;;;2.17;;
19739;SDS011;10027;51.066;13.768;2022-09-30T16:54:08;3.63;;;2.50;;
19739;SDS011;10027;51.066;13.768;2022-09-30T16:56:36;3.33;;;2.40;;
19739;SDS011;10027;51.066;13.768;2022-09-30T16:59:03;4.23;;;2.57;;
19739;SDS011;10027;51.066;13.768;2022-09-30T17:01:30;3.30;;;2.30;;
19739;SDS011;10027;51.066;13.768;2022-09-30T17:03:57;4.10;;;2.70;;
19739;SDS011;10027;51.066;13.768;2022-09-30T17:06:28;2.83;;;2.40;;
19739;SDS011;10027;51.066;13.768;2022-09-30T17:08:56;5.00;;;2.30;;
19739;SDS011;10027;51.066;13.768;2022-09-30T17:11:27;3.80;;;2.90;;
19739;SDS011;10027;51.066;13.768;2022-09-30T17:13:56;6.27;;;3.50;;
19739;SDS011;10027;51.066;13.768;2022-09-30T17:16:23;7.20;;;4.00;;
19739;SDS011;10027;51.066;13.768;2022-09-30T17:18:51;3.83;;;3.33;;
19739;SDS011;10027;51.066;13.768;2022-09-30T17:21:18;5.83;;;3.03;;
19739;SDS011;10027;51.066;13.768;2022-09-30T17:23:45;5.30;;;3.50;;
19739;SDS011;10027;51.066;13.768;2022-09-30T17:26:13;3.90;;;2.63;;
19739;SDS011;10027;51.066;13.768;2022-09-30T17:28:40;2.87;;;2.57;;
19739;SDS011;10027;51.066;13.768;2022-09-30T17:31:07;4.03;;;2.97;;
19739;SDS011;10027;51.066;13.768;2022-09-30T17:33:36;5.60;;;3.07;;
19739;SDS011;10027;51.066;13.768;2022-09-30T17:36:04;4.87;;;3.37;;
19739;SDS011;10027;51.066;13.768;2022-09-30T17:38:32;4.83;;;3.23;;
19739;SDS011;10027;51.066;13.768;2022-09-30T17:40:59;3.63;;;3.13;;
19739;SDS011;10027;51.066;13.768;2022-09-30T17:43:45;4.73;;;3.53;;
19739;SDS011;10027;51.066;13.768;2022-09-30T17:46:13;5.23;;;3.57;;
19739;SDS011;10027;51.066;13.768;2022-09-30T17:48:44;4.70;;;3.60;;
19739;SDS011;10027;51.066;13.768;2022-09-30T17:51:12;7.83;;;3.60;;
19739;SDS011;10027;51.066;13.768;2022-09-30T17:53:41;9.63;;;4.23;;
19739;SDS011;10027;51.066;13.768;2022-09-30T17:56:19;7.23;;;4.50;;
19739;SDS011;10027;51.066;13.768;2022-09-30T17:58:49;5.00;;;3.73;;
19739;SDS011;10027;51.066;13.768;2022-09-30T18:01:17;5.30;;;3.93;;
19739;SDS011;10027;51.066;13.768;2022-09-30T18:03:45;6.40;;;3.90;;
19739;SDS011;10027;51.066;13.768;2022-09-30T18:06:12;6.43;;;3.63;;